Weather at Faa'a International Airport

Public forecast

Using degrees Celsius for public forecast. Weather courtesy of forecast.io.

Current aviation weather report (METAR) for Faa'a International Airport

Retrieved 2021/09/19 19:30 UTC (8 minutes ago):

NTAA 191930Z VRB03KT 9999 FEW023 27/20 Q1018 NOSIG

Aviation forecast (TAF) for Faa'a International Airport

Retrieved 2021/09/19 18:06 UTC (2 hours ago):

TAF NTAA 191700Z 1918/2024 VRB05KT 9999 FEW020 SCT060 PROB30 TEMPO 2020/2024 05014KT